createdAt,value
2019-06-15T00:00:48.570Z,64.76
2019-06-15T00:03:15.059Z,64.67
2019-06-15T00:05:41.458Z,64.86
2019-06-15T00:08:07.819Z,64.97
2019-06-15T00:10:34.479Z,65.10
2019-06-15T00:13:00.843Z,65.68
2019-06-15T00:15:27.261Z,65.80
2019-06-15T00:17:53.631Z,66.12
2019-06-15T00:20:20.109Z,66.55
2019-06-15T00:22:46.518Z,67.00
2019-06-15T00:25:12.953Z,66.97
2019-06-15T00:27:39.329Z,67.77
2019-06-15T00:30:05.955Z,67.34
2019-06-15T00:32:32.328Z,67.77
2019-06-15T00:34:58.755Z,67.41
2019-06-15T00:37:25.129Z,67.75
2019-06-15T00:39:51.536Z,68.45
2019-06-15T00:42:17.941Z,68.11
2019-06-15T00:44:44.335Z,68.93
2019-06-15T00:47:10.708Z,68.80
2019-06-15T00:49:37.188Z,69.22
2019-06-15T00:52:03.622Z,69.90
2019-06-15T00:54:30.012Z,69.87
2019-06-15T00:56:56.376Z,70.17
2019-06-15T00:59:22.749Z,70.33
2019-06-15T01:01:49.131Z,70.16
2019-06-15T01:04:15.515Z,71.31
2019-06-15T01:06:41.918Z,71.50
2019-06-15T01:09:08.383Z,71.22
2019-06-15T01:11:34.805Z,71.14
2019-06-15T01:14:01.321Z,70.63
2019-06-15T01:16:27.715Z,71.02
2019-06-15T01:18:54.104Z,70.90
2019-06-15T01:21:20.483Z,70.49
2019-06-15T01:23:46.937Z,70.17
2019-06-15T01:26:13.321Z,70.32
2019-06-15T01:28:39.698Z,70.69
2019-06-15T01:31:06.103Z,70.20
2019-06-15T01:33:33.687Z,70.84
2019-06-15T01:36:00.085Z,70.33
2019-06-15T01:38:26.555Z,71.41
2019-06-15T01:40:53.015Z,70.87
2019-06-15T01:43:19.641Z,70.98
2019-06-15T01:45:46.026Z,71.07
2019-06-15T01:48:12.426Z,71.41
2019-06-15T01:50:38.859Z,71.67
2019-06-15T01:53:05.274Z,71.75
2019-06-15T01:55:31.684Z,72.00
2019-06-15T01:57:58.182Z,71.69
2019-06-15T02:00:28.210Z,72.35
2019-06-15T02:02:54.618Z,72.18
2019-06-15T02:05:21.237Z,71.81
2019-06-15T02:07:47.643Z,72.31
2019-06-15T02:10:15.678Z,72.28
2019-06-15T02:12:42.056Z,72.88
2019-06-15T02:15:08.746Z,72.34
2019-06-15T02:17:35.110Z,72.71
2019-06-15T02:20:01.539Z,73.76
2019-06-15T02:22:27.915Z,74.76
2019-06-15T02:24:54.327Z,75.55
2019-06-15T02:27:20.984Z,77.02
2019-06-15T02:29:47.361Z,79.48
2019-06-15T02:32:13.743Z,81.03
2019-06-15T02:34:40.129Z,82.84
2019-06-15T02:37:06.594Z,84.79
2019-06-15T02:39:32.994Z,85.72
2019-06-15T02:41:59.460Z,87.58
2019-06-15T02:44:25.857Z,89.94
2019-06-15T02:46:52.217Z,90.75
2019-06-15T02:49:18.695Z,92.00
2019-06-15T02:51:45.170Z,93.99
2019-06-15T02:54:11.738Z,93.18
2019-06-15T02:56:38.071Z,94.71
2019-06-15T02:59:04.435Z,94.28
2019-06-15T03:01:30.979Z,95.17
2019-06-15T03:03:57.395Z,96.00
2019-06-15T03:06:23.913Z,95.68
2019-06-15T03:08:50.408Z,94.55
2019-06-15T03:11:16.794Z,94.29
2019-06-15T03:13:43.803Z,92.80
2019-06-15T03:16:10.179Z,92.96
2019-06-15T03:18:36.596Z,92.26
2019-06-15T03:21:03.159Z,91.35
2019-06-15T03:23:29.580Z,91.70
2019-06-15T03:26:05.126Z,92.29
2019-06-15T03:28:24.654Z,91.28
2019-06-15T03:30:51.018Z,90.74
2019-06-15T03:33:17.469Z,90.42
2019-06-15T03:35:43.836Z,89.99
2019-06-15T03:38:10.218Z,90.06
2019-06-15T03:40:36.639Z,89.76
2019-06-15T03:43:03.029Z,89.36
2019-06-15T03:45:29.436Z,89.59
2019-06-15T03:47:55.832Z,89.56
2019-06-15T03:50:22.226Z,90.43
2019-06-15T03:52:48.630Z,90.45
2019-06-15T03:55:15.362Z,90.87
2019-06-15T03:57:41.726Z,91.32
2019-06-15T04:00:41.423Z,91.16
2019-06-15T04:03:07.799Z,91.07
2019-06-15T04:05:34.190Z,91.39
2019-06-15T04:08:00.676Z,91.78
2019-06-15T04:10:27.068Z,92.21
2019-06-15T04:12:53.482Z,91.91
2019-06-15T04:15:19.878Z,91.82
2019-06-15T04:17:46.255Z,92.36
2019-06-15T04:20:12.787Z,91.17
2019-06-15T04:22:39.174Z,91.18
2019-06-15T04:25:05.637Z,90.39
2019-06-15T04:27:32.059Z,90.53
2019-06-15T04:29:58.442Z,89.81
2019-06-15T04:32:24.862Z,89.51
2019-06-15T04:34:51.325Z,89.22
2019-06-15T04:37:17.742Z,89.63
2019-06-15T04:39:44.172Z,90.38
2019-06-15T04:42:10.549Z,90.12
2019-06-15T04:44:36.989Z,89.83
2019-06-15T04:47:03.394Z,89.32
2019-06-15T04:49:29.786Z,89.25
2019-06-15T04:51:56.188Z,88.80
2019-06-15T04:54:22.562Z,89.23
2019-06-15T04:56:51.240Z,88.67
2019-06-15T04:59:17.332Z,88.83
2019-06-15T05:01:43.726Z,89.75
2019-06-15T05:04:10.129Z,89.87
2019-06-15T05:06:37.407Z,89.05
2019-06-15T05:09:05.193Z,89.47
2019-06-15T05:11:31.654Z,89.66
2019-06-15T05:13:58.161Z,88.83
2019-06-15T05:16:24.534Z,88.25
2019-06-15T05:18:50.948Z,88.68
2019-06-15T05:21:17.491Z,88.19
2019-06-15T05:23:43.911Z,87.17
2019-06-15T05:26:10.286Z,86.81
2019-06-15T05:28:36.672Z,86.37
2019-06-15T05:31:03.488Z,85.93
2019-06-15T05:33:29.819Z,85.99
2019-06-15T05:35:56.257Z,85.59
2019-06-15T05:38:22.714Z,86.22
2019-06-15T05:40:49.125Z,85.76
2019-06-15T05:43:15.527Z,85.15
2019-06-15T05:45:41.945Z,84.58
2019-06-15T05:48:08.692Z,83.59
2019-06-15T05:50:35.074Z,83.06
2019-06-15T05:53:01.472Z,82.77
2019-06-15T05:55:27.870Z,81.82
2019-06-15T05:57:54.429Z,82.09
2019-06-15T06:00:21.392Z,79.81
2019-06-15T06:02:47.809Z,79.60
2019-06-15T06:05:14.410Z,80.07
2019-06-15T06:07:40.835Z,79.87
2019-06-15T06:10:10.775Z,79.26
2019-06-15T06:12:36.824Z,78.52
2019-06-15T06:15:03.848Z,77.65
2019-06-15T06:17:30.237Z,76.48
2019-06-15T06:19:56.602Z,77.09
2019-06-15T06:22:23.026Z,75.30
2019-06-15T06:24:49.407Z,75.71
2019-06-15T06:27:15.825Z,75.17
2019-06-15T06:29:42.210Z,75.48
2019-06-15T06:32:08.599Z,75.62
2019-06-15T06:34:35.020Z,74.52
2019-06-15T06:37:01.400Z,75.20
2019-06-15T06:39:27.793Z,74.37
2019-06-15T06:41:54.198Z,74.76
2019-06-15T06:44:20.596Z,73.49
2019-06-15T06:46:47.056Z,74.14
2019-06-15T06:49:13.461Z,74.63
2019-06-15T06:51:39.835Z,72.16
2019-06-15T06:54:06.262Z,71.81
2019-06-15T06:56:32.629Z,71.30
2019-06-15T06:58:59.911Z,71.31
2019-06-15T07:01:26.336Z,73.15
2019-06-15T07:03:52.705Z,74.28
2019-06-15T07:06:19.169Z,75.44
2019-06-15T07:08:47.992Z,73.25
2019-06-15T07:11:14.034Z,73.21
2019-06-15T07:13:40.681Z,71.30
2019-06-15T07:16:07.237Z,71.11
2019-06-15T07:18:33.644Z,70.76
2019-06-15T07:21:00.172Z,73.65
2019-06-15T07:23:26.611Z,71.81
2019-06-15T07:25:53.038Z,70.75
2019-06-15T07:28:19.514Z,70.72
2019-06-15T07:30:46.264Z,71.35
2019-06-15T07:33:12.678Z,70.29
2019-06-15T07:35:39.106Z,70.89
2019-06-15T07:38:05.536Z,71.45
2019-06-15T07:40:32.009Z,70.16
2019-06-15T07:42:58.392Z,70.32
2019-06-15T07:45:24.772Z,70.61
2019-06-15T07:47:51.209Z,69.83
2019-06-15T07:50:17.812Z,68.92
2019-06-15T07:52:44.198Z,68.27
2019-06-15T07:55:11.143Z,69.65
2019-06-15T07:57:37.549Z,68.58
2019-06-15T08:00:04.765Z,66.47
2019-06-15T08:02:31.230Z,65.62
2019-06-15T08:04:57.821Z,66.79
2019-06-15T08:07:24.247Z,67.04
2019-06-15T08:09:51.559Z,67.39
2019-06-15T08:12:17.999Z,65.18
2019-06-15T08:14:44.392Z,65.18
2019-06-15T08:17:10.877Z,65.71
2019-06-15T08:19:37.277Z,65.21
2019-06-15T08:22:03.749Z,65.31
2019-06-15T08:24:30.163Z,63.76
2019-06-15T08:26:56.532Z,64.46
2019-06-15T08:29:22.925Z,65.28
2019-06-15T08:31:49.340Z,61.40
2019-06-15T08:34:15.722Z,63.66
2019-06-15T08:36:42.110Z,62.71
2019-06-15T08:39:08.514Z,61.12
2019-06-15T08:41:35.030Z,61.27
2019-06-15T08:44:01.505Z,63.95
2019-06-15T08:46:28.223Z,61.21
2019-06-15T08:48:54.612Z,60.83
2019-06-15T08:51:20.980Z,61.94
2019-06-15T08:53:47.381Z,62.12
2019-06-15T08:56:14.822Z,60.22
2019-06-15T08:58:54.745Z,59.13
2019-06-15T09:01:10.391Z,59.11
2019-06-15T09:03:36.768Z,60.97
2019-06-15T09:06:03.383Z,61.96
2019-06-15T09:08:29.783Z,61.92
2019-06-15T09:10:56.218Z,59.38
2019-06-15T09:13:22.589Z,60.13
2019-06-15T09:15:50.595Z,60.38
2019-06-15T09:18:17.000Z,65.15
2019-06-15T09:20:44.372Z,60.19
2019-06-15T09:23:10.752Z,58.37
2019-06-15T09:25:37.192Z,58.19
2019-06-15T09:28:03.602Z,58.78
2019-06-15T09:30:30.032Z,56.79
2019-06-15T09:32:56.464Z,57.99
2019-06-15T09:35:22.863Z,58.03
2019-06-15T09:37:49.286Z,55.83
2019-06-15T09:40:15.820Z,55.68
2019-06-15T09:42:45.576Z,54.43
2019-06-15T09:45:12.571Z,53.16
2019-06-15T09:47:39.026Z,56.04
2019-06-15T09:50:05.521Z,53.12
2019-06-15T09:52:31.922Z,52.94
2019-06-15T09:54:58.350Z,54.62
2019-06-15T09:57:25.776Z,52.09
2019-06-15T09:59:52.231Z,52.56
2019-06-15T10:02:18.775Z,51.58
2019-06-15T10:04:45.624Z,52.19
2019-06-15T10:07:12.251Z,49.05
2019-06-15T10:09:38.799Z,50.36
2019-06-15T10:12:06.480Z,46.47
2019-06-15T10:14:33.077Z,47.19
2019-06-15T10:16:59.499Z,52.59
2019-06-15T10:19:25.940Z,47.65
2019-06-15T10:21:52.343Z,42.47
2019-06-15T10:24:20.823Z,43.54
2019-06-15T10:26:47.200Z,45.29
2019-06-15T10:29:13.632Z,45.32
2019-06-15T10:31:40.020Z,43.49
2019-06-15T10:34:06.520Z,44.07
2019-06-15T10:36:32.936Z,50.29
2019-06-15T10:38:59.465Z,46.37
2019-06-15T10:41:25.851Z,44.18
2019-06-15T10:43:52.272Z,44.82
2019-06-15T10:46:18.665Z,45.58
2019-06-15T10:48:45.351Z,47.60
2019-06-15T10:51:11.769Z,46.54
2019-06-15T10:53:38.175Z,48.21
2019-06-15T10:56:04.715Z,48.56
2019-06-15T10:58:32.540Z,48.48
2019-06-15T11:00:58.909Z,50.48
2019-06-15T11:03:26.111Z,52.53
2019-06-15T11:05:54.908Z,50.80
2019-06-15T11:08:21.786Z,50.94
2019-06-15T11:17:45.755Z,52.10
2019-06-15T11:20:12.676Z,52.89
2019-06-15T11:22:39.162Z,49.04
2019-06-15T11:25:05.737Z,49.54
2019-06-15T11:27:32.250Z,48.73
2019-06-15T11:30:12.564Z,49.35
2019-06-15T11:32:26.870Z,45.04
2019-06-15T11:34:53.301Z,45.25
2019-06-15T11:37:19.686Z,42.91
2019-06-15T11:39:46.073Z,49.28
2019-06-15T11:42:12.512Z,43.69
2019-06-15T11:44:38.990Z,43.49
2019-06-15T11:47:05.555Z,39.83
2019-06-15T11:49:31.945Z,38.63
2019-06-15T11:51:58.663Z,33.45
2019-06-15T11:54:25.090Z,33.65
2019-06-15T11:56:51.496Z,35.22
2019-06-15T11:59:17.935Z,33.56
2019-06-15T12:01:44.372Z,31.94
2019-06-15T12:04:11.021Z,34.04
2019-06-15T12:06:38.159Z,28.95
2019-06-15T12:09:06.009Z,31.93
2019-06-15T12:11:32.395Z,30.95
2019-06-15T12:13:58.832Z,32.75
2019-06-15T12:16:28.556Z,35.36
2019-06-15T12:18:55.022Z,35.28
2019-06-15T12:21:21.482Z,38.03
2019-06-15T12:23:47.901Z,38.08
2019-06-15T12:26:14.289Z,40.48
2019-06-15T12:28:40.734Z,43.72
2019-06-15T12:31:07.321Z,39.32
2019-06-15T12:33:33.711Z,37.99
2019-06-15T12:36:00.401Z,40.24
2019-06-15T12:38:27.846Z,41.12
2019-06-15T12:40:59.355Z,40.55
2019-06-15T12:43:25.764Z,39.22
2019-06-15T12:45:52.149Z,40.02
2019-06-15T12:48:18.599Z,39.01
2019-06-15T12:50:45.107Z,36.99
2019-06-15T12:53:11.448Z,36.62
2019-06-15T12:55:37.865Z,38.61
2019-06-15T12:58:04.261Z,37.26
2019-06-15T13:00:35.267Z,36.12
2019-06-15T13:03:01.696Z,38.05
2019-06-15T13:05:29.064Z,38.25
2019-06-15T13:07:55.497Z,37.06
2019-06-15T13:10:21.874Z,37.84
2019-06-15T13:12:48.282Z,40.50
2019-06-15T13:15:15.111Z,40.70
2019-06-15T13:17:41.525Z,40.30
2019-06-15T13:20:09.031Z,40.56
2019-06-15T13:22:35.453Z,38.63
2019-06-15T13:25:01.923Z,40.29
2019-06-15T13:27:28.379Z,37.86
2019-06-15T13:29:54.839Z,38.15
2019-06-15T13:32:21.282Z,38.33
2019-06-15T13:34:47.673Z,37.95
2019-06-15T13:37:14.655Z,38.15
2019-06-15T13:39:41.044Z,33.25
2019-06-15T13:42:07.433Z,34.34
2019-06-15T13:44:33.814Z,35.97
2019-06-15T13:47:01.314Z,36.73
2019-06-15T13:49:30.009Z,35.45
2019-06-15T13:52:01.848Z,35.81
2019-06-15T13:54:29.682Z,34.09
2019-06-15T13:56:56.120Z,33.50
2019-06-15T13:59:22.598Z,36.56
2019-06-15T14:01:49.250Z,34.22
2019-06-15T14:04:15.633Z,34.53
2019-06-15T14:06:42.114Z,35.29
2019-06-15T14:09:08.702Z,34.18
2019-06-15T14:11:35.209Z,32.68
2019-06-15T14:14:01.607Z,28.46
2019-06-15T14:16:27.985Z,31.97
2019-06-15T14:18:54.400Z,32.48
2019-06-15T14:21:20.768Z,30.11
2019-06-15T14:23:47.197Z,32.74
2019-06-15T14:26:13.591Z,32.68
2019-06-15T14:28:40.057Z,31.72
2019-06-15T14:31:06.469Z,32.24
2019-06-15T14:33:32.862Z,33.48
2019-06-15T14:35:59.271Z,34.57
2019-06-15T14:38:25.667Z,33.80
2019-06-15T14:40:52.058Z,33.70
2019-06-15T14:43:18.440Z,33.32
2019-06-15T14:45:58.451Z,34.46
2019-06-15T14:48:13.212Z,35.46
2019-06-15T14:50:39.770Z,34.12
2019-06-15T14:53:06.112Z,32.06
2019-06-15T14:55:32.515Z,34.18
2019-06-15T14:57:58.883Z,31.18
2019-06-15T15:00:25.383Z,32.16
2019-06-15T15:02:51.749Z,32.65
2019-06-15T15:05:18.295Z,28.08
2019-06-15T15:07:46.945Z,26.65
2019-06-15T15:10:16.200Z,22.77
2019-06-15T15:12:42.098Z,23.41
2019-06-15T15:15:09.139Z,19.72
2019-06-15T15:17:37.225Z,18.97
2019-06-15T15:20:07.094Z,18.83
2019-06-15T15:22:33.021Z,18.97
2019-06-15T15:24:59.421Z,19.24
2019-06-15T15:27:27.129Z,21.31
2019-06-15T15:29:53.820Z,22.11
2019-06-15T15:32:27.133Z,25.85
2019-06-15T15:34:48.591Z,31.93
2019-06-15T15:37:15.915Z,31.82
2019-06-15T15:39:42.316Z,29.63
2019-06-15T15:42:08.859Z,28.26
2019-06-15T15:44:35.971Z,27.48
2019-06-15T15:47:02.527Z,29.84
2019-06-15T15:49:28.930Z,32.64
2019-06-15T15:51:56.594Z,31.66
2019-06-15T15:54:23.423Z,31.27
2019-06-15T15:56:49.810Z,30.49
2019-06-15T15:59:16.391Z,30.35
2019-06-15T16:01:42.866Z,29.09
2019-06-15T16:04:09.335Z,28.75
2019-06-15T16:06:36.367Z,28.09
2019-06-15T16:09:06.163Z,28.66
2019-06-15T16:11:33.092Z,28.60
2019-06-15T16:13:59.503Z,27.80
2019-06-15T16:16:26.664Z,28.46
2019-06-15T16:18:55.985Z,28.59
2019-06-15T16:21:21.879Z,29.20
2019-06-15T16:23:48.348Z,28.95
2019-06-15T16:26:16.994Z,29.29
2019-06-15T16:28:46.104Z,29.73
2019-06-15T16:31:14.130Z,29.65
2019-06-15T16:33:41.295Z,30.76
2019-06-15T16:36:07.971Z,30.48
2019-06-15T16:38:36.440Z,29.31
2019-06-15T16:41:02.696Z,28.69
2019-06-15T16:43:29.102Z,27.79
2019-06-15T16:45:57.065Z,29.70
2019-06-15T16:48:25.963Z,31.56
2019-06-15T16:50:52.232Z,34.51
2019-06-15T16:53:19.061Z,36.79
2019-06-15T16:55:46.842Z,37.77
2019-06-15T16:58:15.968Z,35.37
2019-06-15T17:00:41.939Z,34.11
2019-06-15T17:03:20.674Z,35.06
2019-06-15T17:05:37.854Z,36.97
2019-06-15T17:08:06.695Z,38.50
2019-06-15T17:10:39.943Z,40.92
2019-06-15T17:13:07.095Z,41.95
2019-06-15T17:15:33.586Z,43.43
2019-06-15T17:18:00.949Z,44.31
2019-06-15T17:20:31.725Z,45.04
2019-06-15T17:22:58.114Z,46.05
2019-06-15T17:25:26.875Z,46.42
2019-06-15T17:27:52.851Z,45.44
2019-06-15T17:30:19.662Z,47.24
2019-06-15T17:32:46.068Z,46.30
2019-06-15T17:35:12.490Z,45.60
2019-06-15T17:37:38.883Z,46.13
2019-06-15T17:40:05.554Z,46.46
2019-06-15T17:42:31.952Z,46.23
2019-06-15T17:44:59.143Z,46.76
2019-06-15T17:47:26.259Z,46.18
2019-06-15T17:49:56.084Z,46.22
2019-06-15T17:52:22.251Z,46.82
2019-06-15T17:54:48.665Z,46.75
2019-06-15T17:57:15.077Z,46.20
2019-06-15T17:59:41.459Z,45.71
2019-06-15T18:02:07.906Z,45.50
2019-06-15T18:04:37.097Z,46.31
2019-06-15T18:07:02.625Z,46.21
2019-06-15T18:09:29.025Z,45.91
2019-06-15T18:11:57.166Z,46.28
2019-06-15T18:14:26.262Z,46.72
2019-06-15T18:16:52.005Z,46.65
2019-06-15T18:19:18.393Z,47.25
2019-06-15T18:21:46.744Z,47.53
2019-06-15T18:24:13.152Z,47.40
2019-06-15T18:26:39.534Z,47.85
2019-06-15T18:29:05.978Z,47.98
2019-06-15T18:31:32.435Z,48.42
2019-06-15T18:34:09.297Z,48.46
2019-06-15T18:36:27.380Z,48.56
2019-06-15T18:38:53.764Z,49.01
2019-06-15T18:41:20.170Z,49.92
2019-06-15T18:43:46.551Z,49.96
2019-06-15T18:46:12.935Z,50.30
2019-06-15T18:48:39.340Z,50.33
2019-06-15T18:51:07.583Z,49.78
2019-06-15T18:53:36.771Z,50.45
2019-06-15T18:56:02.386Z,50.29
2019-06-15T18:58:28.809Z,51.44
2019-06-15T19:00:55.193Z,50.73
2019-06-15T19:03:21.665Z,50.87
2019-06-15T19:05:48.082Z,51.28
2019-06-15T19:08:17.116Z,51.42
2019-06-15T19:10:42.930Z,52.71
2019-06-15T19:13:10.286Z,52.74
2019-06-15T19:15:37.465Z,52.81
2019-06-15T19:18:04.004Z,54.04
2019-06-15T19:20:30.542Z,54.24
2019-06-15T19:22:57.098Z,54.46
2019-06-15T19:25:23.493Z,55.33
2019-06-15T19:27:50.059Z,55.73
2019-06-15T19:30:16.769Z,56.26
2019-06-15T19:32:43.290Z,56.58
2019-06-15T19:35:09.901Z,56.96
2019-06-15T19:37:37.078Z,57.39
2019-06-15T19:40:03.811Z,57.53
2019-06-15T19:42:38.124Z,57.97
2019-06-15T19:45:07.741Z,58.49
2019-06-15T19:47:40.320Z,58.39
2019-06-15T19:50:09.777Z,58.38
2019-06-15T19:52:36.087Z,59.04
2019-06-15T19:55:02.735Z,58.96
2019-06-15T19:57:29.231Z,59.02
2019-06-15T19:59:56.194Z,59.17
2019-06-15T20:02:22.776Z,59.38
2019-06-15T20:05:00.356Z,59.96
2019-06-15T20:07:18.259Z,60.56
2019-06-15T20:09:46.246Z,60.11
2019-06-15T20:12:19.173Z,61.20
2019-06-15T20:14:46.011Z,61.30
2019-06-15T20:17:11.656Z,61.46
2019-06-15T20:19:38.444Z,61.46
2019-06-15T20:22:06.644Z,61.08
2019-06-15T20:24:33.296Z,61.98
2019-06-15T20:26:59.765Z,62.79
2019-06-15T20:29:27.155Z,62.83
2019-06-15T20:31:53.672Z,62.31
2019-06-15T20:34:20.107Z,62.58
2019-06-15T20:36:47.102Z,62.28
2019-06-15T20:39:16.487Z,62.51
2019-06-15T20:41:43.413Z,63.96
2019-06-15T20:44:09.920Z,64.37
2019-06-15T20:46:37.154Z,63.67
2019-06-15T20:49:06.521Z,64.21
2019-06-15T20:51:33.440Z,64.59
2019-06-15T20:54:00.720Z,65.20
2019-06-15T20:56:27.618Z,65.70
2019-06-15T20:58:56.974Z,66.70
2019-06-15T21:01:22.348Z,66.94
2019-06-15T21:03:48.822Z,67.76
2019-06-15T21:06:16.861Z,67.52
2019-06-15T21:08:43.424Z,68.44
2019-06-15T21:11:09.828Z,69.13
2019-06-15T21:13:37.465Z,69.57
2019-06-15T21:16:06.532Z,69.57
2019-06-15T21:18:34.038Z,69.26
2019-06-15T21:21:00.772Z,69.87
2019-06-15T21:23:27.151Z,70.76
2019-06-15T21:25:53.597Z,70.01
2019-06-15T21:28:20.090Z,71.31
2019-06-15T21:30:47.106Z,72.18
2019-06-15T21:33:13.754Z,72.41
2019-06-15T21:35:48.971Z,72.36
2019-06-15T21:38:08.494Z,71.69
2019-06-15T21:40:36.770Z,71.61
2019-06-15T21:43:03.245Z,72.36
2019-06-15T21:45:29.657Z,72.10
2019-06-15T21:47:56.364Z,71.86
2019-06-15T21:50:22.827Z,71.72
2019-06-15T21:52:49.504Z,71.94
2019-06-15T21:55:16.084Z,71.87
2019-06-15T21:57:42.649Z,72.06
2019-06-15T22:00:12.596Z,71.91
2019-06-15T22:02:47.083Z,73.10
2019-06-15T22:05:13.799Z,71.51
2019-06-15T22:07:40.220Z,71.55
2019-06-15T22:10:07.300Z,71.56
2019-06-15T22:12:36.357Z,72.55
2019-06-15T22:15:02.237Z,71.72
2019-06-15T22:17:28.821Z,71.69
2019-06-15T22:19:56.921Z,72.08
2019-06-15T22:22:23.488Z,72.46
2019-06-15T22:24:49.893Z,73.04
2019-06-15T22:27:17.046Z,73.12
2019-06-15T22:29:43.626Z,73.16
2019-06-15T22:32:10.048Z,73.21
2019-06-15T22:34:36.524Z,74.26
2019-06-15T22:37:03.080Z,73.56
2019-06-15T22:39:29.488Z,72.08
2019-06-15T22:41:56.160Z,70.70
2019-06-15T22:44:22.809Z,72.35
2019-06-15T22:46:49.265Z,70.85
2019-06-15T22:49:16.131Z,69.99
2019-06-15T22:51:42.783Z,69.48
2019-06-15T22:54:09.231Z,69.28
2019-06-15T22:56:37.028Z,69.40
2019-06-15T22:59:06.126Z,69.49
2019-06-15T23:01:32.068Z,69.25
2019-06-15T23:03:58.504Z,70.28
2019-06-15T23:06:34.711Z,69.45
2019-06-15T23:08:53.393Z,67.95
2019-06-15T23:11:19.814Z,67.18
2019-06-15T23:13:46.438Z,66.95
2019-06-15T23:16:12.832Z,67.17
2019-06-15T23:18:39.308Z,66.97
2019-06-15T23:21:06.399Z,66.61
2019-06-15T23:23:32.936Z,67.71
2019-06-15T23:25:59.364Z,67.44
2019-06-15T23:28:27.074Z,67.09
2019-06-15T23:30:56.051Z,67.29
2019-06-15T23:33:22.085Z,67.07
2019-06-15T23:35:56.832Z,67.61
2019-06-15T23:38:23.274Z,66.92
2019-06-15T23:40:49.677Z,67.35
2019-06-15T23:43:16.682Z,68.10
2019-06-15T23:45:56.083Z,68.65
2019-06-15T23:48:22.647Z,66.85
2019-06-15T23:50:49.035Z,67.17
2019-06-15T23:53:16.929Z,68.19
2019-06-15T23:55:43.472Z,68.41
2019-06-15T23:58:09.869Z,68.46
